sensor_id;sensor_type;location;lat;lon;timestamp;temperature;humidity
9193;DHT22;4631;49.296;10.560;2022-10-16T00:01:04;15.50;99.90
9193;DHT22;4631;49.296;10.560;2022-10-16T00:03:32;15.40;99.90
9193;DHT22;4631;49.296;10.560;2022-10-16T00:05:58;15.40;99.90
9193;DHT22;4631;49.296;10.560;2022-10-16T00:08:25;15.40;99.90
9193;DHT22;4631;49.296;10.560;2022-10-16T00:10:52;15.50;99.90
9193;DHT22;4631;49.296;10.560;2022-10-16T00:13:19;15.40;99.90
9193;DHT22;4631;49.296;10.560;2022-10-16T00:15:46;15.50;99.90
9193;DHT22;4631;49.296;10.560;2022-10-16T00:18:12;15.40;99.90
9193;DHT22;4631;49.296;10.560;2022-10-16T00:20:41;15.50;99.90
9193;DHT22;4631;49.296;10.560;2022-10-16T00:23:07;15.40;99.90
9193;DHT22;4631;49.296;10.560;2022-10-16T00:25:35;15.40;99.90
9193;DHT22;4631;49.296;10.560;2022-10-16T00:28:02;15.40;99.90
9193;DHT22;4631;49.296;10.560;2022-10-16T00:30:29;15.40;99.90
9193;DHT22;4631;49.296;10.560;2022-10-16T00:32:55;15.40;99.90
9193;DHT22;4631;49.296;10.560;2022-10-16T00:35:22;15.40;99.90
9193;DHT22;4631;49.296;10.560;2022-10-16T00:37:50;15.40;99.90
9193;DHT22;4631;49.296;10.560;2022-10-16T00:40:16;15.40;99.90
9193;DHT22;4631;49.296;10.560;2022-10-16T00:42:43;15.40;99.90
9193;DHT22;4631;49.296;10.560;2022-10-16T00:45:10;15.40;99.90
9193;DHT22;4631;49.296;10.560;2022-10-16T00:47:37;15.40;99.90
9193;DHT22;4631;49.296;10.560;2022-10-16T00:50:06;15.30;99.90
9193;DHT22;4631;49.296;10.560;2022-10-16T00:52:33;15.30;99.90
9193;DHT22;4631;49.296;10.560;2022-10-16T00:55:02;15.30;99.90
9193;DHT22;4631;49.296;10.560;2022-10-16T00:57:29;15.40;99.90
9193;DHT22;4631;49.296;10.560;2022-10-16T00:59:56;15.30;99.90
9193;DHT22;4631;49.296;10.560;2022-10-16T01:02:23;15.40;99.90
9193;DHT22;4631;49.296;10.560;2022-10-16T01:04:50;15.30;99.90
9193;DHT22;4631;49.296;10.560;2022-10-16T01:07:20;15.30;99.90
9193;DHT22;4631;49.296;10.560;2022-10-16T01:09:55;15.30;99.90
9193;DHT22;4631;49.296;10.560;2022-10-16T01:12:30;15.30;99.90
9193;DHT22;4631;49.296;10.560;2022-10-16T01:14:59;15.30;99.90
9193;DHT22;4631;49.296;10.560;2022-10-16T01:17:28;15.30;99.90
9193;DHT22;4631;49.296;10.560;2022-10-16T01:20:03;15.30;99.90
9193;DHT22;4631;49.296;10.560;2022-10-16T01:22:33;15.30;99.90
9193;DHT22;4631;49.296;10.560;2022-10-16T01:25:02;15.40;99.90
9193;DHT22;4631;49.296;10.560;2022-10-16T01:27:33;15.40;99.90
9193;DHT22;4631;49.296;10.560;2022-10-16T01:30:04;15.30;99.90
9193;DHT22;4631;49.296;10.560;2022-10-16T01:32:33;15.30;99.90
9193;DHT22;4631;49.296;10.560;2022-10-16T01:35:03;15.40;99.90
9193;DHT22;4631;49.296;10.560;2022-10-16T01:37:32;15.30;99.90
9193;DHT22;4631;49.296;10.560;2022-10-16T01:40:00;15.30;99.90
9193;DHT22;4631;49.296;10.560;2022-10-16T01:42:28;15.40;99.90
9193;DHT22;4631;49.296;10.560;2022-10-16T01:44:58;15.30;99.90
9193;DHT22;4631;49.296;10.560;2022-10-16T01:47:25;15.30;99.90
9193;DHT22;4631;49.296;10.560;2022-10-16T01:49:53;15.30;99.90
9193;DHT22;4631;49.296;10.560;2022-10-16T01:52:21;15.30;99.90
9193;DHT22;4631;49.296;10.560;2022-10-16T01:54:50;15.40;99.90
9193;DHT22;4631;49.296;10.560;2022-10-16T01:57:17;15.30;99.90
9193;DHT22;4631;49.296;10.560;2022-10-16T01:59:47;15.30;99.90
9193;DHT22;4631;49.296;10.560;2022-10-16T02:02:16;15.30;99.90
9193;DHT22;4631;49.296;10.560;2022-10-16T02:04:45;15.40;99.90
9193;DHT22;4631;49.296;10.560;2022-10-16T02:07:12;15.30;99.90
9193;DHT22;4631;49.296;10.560;2022-10-16T02:09:39;15.30;99.90
9193;DHT22;4631;49.296;10.560;2022-10-16T02:12:07;15.40;99.90
9193;DHT22;4631;49.296;10.560;2022-10-16T02:14:36;15.30;99.90
9193;DHT22;4631;49.296;10.560;2022-10-16T02:17:09;15.30;99.90
9193;DHT22;4631;49.296;10.560;2022-10-16T02:19:37;15.30;99.90
9193;DHT22;4631;49.296;10.560;2022-10-16T02:22:04;15.30;99.90
9193;DHT22;4631;49.296;10.560;2022-10-16T02:24:32;15.30;99.90
9193;DHT22;4631;49.296;10.560;2022-10-16T02:27:00;15.30;99.90
9193;DHT22;4631;49.296;10.560;2022-10-16T02:29:29;15.30;99.90
9193;DHT22;4631;49.296;10.560;2022-10-16T02:31:57;15.30;99.90
9193;DHT22;4631;49.296;10.560;2022-10-16T02:34:25;15.30;99.90
9193;DHT22;4631;49.296;10.560;2022-10-16T02:36:55;15.30;99.90
9193;DHT22;4631;49.296;10.560;2022-10-16T02:39:22;15.30;99.90
9193;DHT22;4631;49.296;10.560;2022-10-16T02:41:49;15.30;99.90
9193;DHT22;4631;49.296;10.560;2022-10-16T02:44:15;15.20;99.90
9193;DHT22;4631;49.296;10.560;2022-10-16T02:46:42;15.20;99.90
9193;DHT22;4631;49.296;10.560;2022-10-16T02:49:09;15.20;99.90
9193;DHT22;4631;49.296;10.560;2022-10-16T02:51:35;15.20;99.90
9193;DHT22;4631;49.296;10.560;2022-10-16T02:54:03;15.20;99.90
9193;DHT22;4631;49.296;10.560;2022-10-16T02:56:30;15.20;99.90
9193;DHT22;4631;49.296;10.560;2022-10-16T02:58:57;15.20;99.90
9193;DHT22;4631;49.296;10.560;2022-10-16T03:01:24;15.20;99.90
9193;DHT22;4631;49.296;10.560;2022-10-16T03:03:50;15.20;99.90
9193;DHT22;4631;49.296;10.560;2022-10-16T03:06:17;15.20;99.90
9193;DHT22;4631;49.296;10.560;2022-10-16T03:08:43;15.20;99.90
9193;DHT22;4631;49.296;10.560;2022-10-16T03:11:11;15.10;99.90
9193;DHT22;4631;49.296;10.560;2022-10-16T03:13:38;15.10;99.90
9193;DHT22;4631;49.296;10.560;2022-10-16T03:16:04;15.10;99.90
9193;DHT22;4631;49.296;10.560;2022-10-16T03:18:31;15.10;99.90
9193;DHT22;4631;49.296;10.560;2022-10-16T03:20:58;15.10;99.90
9193;DHT22;4631;49.296;10.560;2022-10-16T03:23:24;15.00;99.90
9193;DHT22;4631;49.296;10.560;2022-10-16T03:25:51;15.00;99.90
9193;DHT22;4631;49.296;10.560;2022-10-16T03:28:19;15.00;99.90
9193;DHT22;4631;49.296;10.560;2022-10-16T03:30:45;15.00;99.90
9193;DHT22;4631;49.296;10.560;2022-10-16T03:33:12;15.00;99.90
9193;DHT22;4631;49.296;10.560;2022-10-16T03:35:39;15.00;99.90
9193;DHT22;4631;49.296;10.560;2022-10-16T03:38:05;15.00;99.90
9193;DHT22;4631;49.296;10.560;2022-10-16T03:40:32;15.00;99.90
9193;DHT22;4631;49.296;10.560;2022-10-16T03:42:59;15.00;99.90
9193;DHT22;4631;49.296;10.560;2022-10-16T03:45:26;15.00;99.90
9193;DHT22;4631;49.296;10.560;2022-10-16T03:47:53;14.90;99.90
9193;DHT22;4631;49.296;10.560;2022-10-16T03:50:20;14.90;99.90
9193;DHT22;4631;49.296;10.560;2022-10-16T03:52:46;14.90;99.90
9193;DHT22;4631;49.296;10.560;2022-10-16T03:55:13;14.90;99.90
9193;DHT22;4631;49.296;10.560;2022-10-16T03:57:39;15.00;99.90
9193;DHT22;4631;49.296;10.560;2022-10-16T04:00:06;14.90;99.90
9193;DHT22;4631;49.296;10.560;2022-10-16T04:02:35;15.00;99.90
9193;DHT22;4631;49.296;10.560;2022-10-16T04:05:01;15.00;99.90
9193;DHT22;4631;49.296;10.560;2022-10-16T04:07:28;15.00;99.90
9193;DHT22;4631;49.296;10.560;2022-10-16T04:09:54;15.00;99.90
9193;DHT22;4631;49.296;10.560;2022-10-16T04:12:23;15.00;99.90
9193;DHT22;4631;49.296;10.560;2022-10-16T04:14:49;14.90;99.90
9193;DHT22;4631;49.296;10.560;2022-10-16T04:17:16;14.90;99.90
9193;DHT22;4631;49.296;10.560;2022-10-16T04:19:44;14.90;99.90
9193;DHT22;4631;49.296;10.560;2022-10-16T04:22:10;14.90;99.90
9193;DHT22;4631;49.296;10.560;2022-10-16T04:24:37;14.90;99.90
9193;DHT22;4631;49.296;10.560;2022-10-16T04:27:04;14.90;99.90
9193;DHT22;4631;49.296;10.560;2022-10-16T04:29:30;14.90;99.90
9193;DHT22;4631;49.296;10.560;2022-10-16T04:31:57;14.90;99.90
9193;DHT22;4631;49.296;10.560;2022-10-16T04:34:23;14.90;99.90
9193;DHT22;4631;49.296;10.560;2022-10-16T04:36:51;14.90;99.90
9193;DHT22;4631;49.296;10.560;2022-10-16T04:39:18;14.90;99.90
9193;DHT22;4631;49.296;10.560;2022-10-16T04:41:45;14.90;99.90
9193;DHT22;4631;49.296;10.560;2022-10-16T04:44:11;14.90;99.90
9193;DHT22;4631;49.296;10.560;2022-10-16T04:46:38;14.80;99.90
9193;DHT22;4631;49.296;10.560;2022-10-16T04:49:05;14.80;99.90
9193;DHT22;4631;49.296;10.560;2022-10-16T04:51:31;14.80;99.90
9193;DHT22;4631;49.296;10.560;2022-10-16T04:53:59;14.80;99.90
9193;DHT22;4631;49.296;10.560;2022-10-16T04:56:26;14.80;99.90
9193;DHT22;4631;49.296;10.560;2022-10-16T04:58:52;14.80;99.90
9193;DHT22;4631;49.296;10.560;2022-10-16T05:01:21;14.80;99.90
9193;DHT22;4631;49.296;10.560;2022-10-16T05:03:48;14.70;99.90
9193;DHT22;4631;49.296;10.560;2022-10-16T05:06:14;14.70;99.90
9193;DHT22;4631;49.296;10.560;2022-10-16T05:08:41;14.70;99.90
9193;DHT22;4631;49.296;10.560;2022-10-16T05:11:09;14.60;99.90
9193;DHT22;4631;49.296;10.560;2022-10-16T05:13:35;14.70;99.90
9193;DHT22;4631;49.296;10.560;2022-10-16T05:16:02;14.70;99.90
9193;DHT22;4631;49.296;10.560;2022-10-16T05:18:29;14.60;99.90
9193;DHT22;4631;49.296;10.560;2022-10-16T05:20:55;14.60;99.90
9193;DHT22;4631;49.296;10.560;2022-10-16T05:23:22;14.60;99.90
9193;DHT22;4631;49.296;10.560;2022-10-16T05:25:52;14.60;99.90
9193;DHT22;4631;49.296;10.560;2022-10-16T05:28:21;14.60;99.90
9193;DHT22;4631;49.296;10.560;2022-10-16T05:30:48;14.50;99.90
9193;DHT22;4631;49.296;10.560;2022-10-16T05:33:14;14.50;99.90
9193;DHT22;4631;49.296;10.560;2022-10-16T05:35:41;14.50;99.90
9193;DHT22;4631;49.296;10.560;2022-10-16T05:38:07;14.50;99.90
9193;DHT22;4631;49.296;10.560;2022-10-16T05:40:34;14.60;99.90
9193;DHT22;4631;49.296;10.560;2022-10-16T05:43:01;14.50;99.90
9193;DHT22;4631;49.296;10.560;2022-10-16T05:45:29;14.50;99.90
9193;DHT22;4631;49.296;10.560;2022-10-16T05:47:56;14.50;99.90
9193;DHT22;4631;49.296;10.560;2022-10-16T05:50:22;14.50;99.90
9193;DHT22;4631;49.296;10.560;2022-10-16T05:52:49;14.50;99.90
9193;DHT22;4631;49.296;10.560;2022-10-16T05:55:15;14.50;99.90
9193;DHT22;4631;49.296;10.560;2022-10-16T05:57:42;14.50;99.90
9193;DHT22;4631;49.296;10.560;2022-10-16T06:00:09;14.40;99.90
9193;DHT22;4631;49.296;10.560;2022-10-16T06:02:37;14.40;99.90
9193;DHT22;4631;49.296;10.560;2022-10-16T06:05:04;14.50;99.90
9193;DHT22;4631;49.296;10.560;2022-10-16T06:07:33;14.50;99.90
9193;DHT22;4631;49.296;10.560;2022-10-16T06:10:00;14.50;99.90
9193;DHT22;4631;49.296;10.560;2022-10-16T06:12:26;14.50;99.90
9193;DHT22;4631;49.296;10.560;2022-10-16T06:14:53;14.50;99.90
9193;DHT22;4631;49.296;10.560;2022-10-16T06:17:19;14.50;99.90
9193;DHT22;4631;49.296;10.560;2022-10-16T06:19:47;14.50;99.90
9193;DHT22;4631;49.296;10.560;2022-10-16T06:22:14;14.60;99.90
9193;DHT22;4631;49.296;10.560;2022-10-16T06:24:41;14.60;99.90
9193;DHT22;4631;49.296;10.560;2022-10-16T06:27:07;14.60;99.90
9193;DHT22;4631;49.296;10.560;2022-10-16T06:29:34;14.60;99.90
9193;DHT22;4631;49.296;10.560;2022-10-16T06:32:01;14.60;99.90
9193;DHT22;4631;49.296;10.560;2022-10-16T06:34:27;14.70;99.90
9193;DHT22;4631;49.296;10.560;2022-10-16T06:36:55;14.70;99.90
9193;DHT22;4631;49.296;10.560;2022-10-16T06:39:22;14.70;99.90
9193;DHT22;4631;49.296;10.560;2022-10-16T06:41:48;14.70;99.90
9193;DHT22;4631;49.296;10.560;2022-10-16T06:44:15;14.80;99.90
9193;DHT22;4631;49.296;10.560;2022-10-16T06:46:42;14.80;99.90
9193;DHT22;4631;49.296;10.560;2022-10-16T06:49:08;14.80;99.90
9193;DHT22;4631;49.296;10.560;2022-10-16T06:51:35;14.80;99.90
9193;DHT22;4631;49.296;10.560;2022-10-16T06:54:07;14.80;99.90
9193;DHT22;4631;49.296;10.560;2022-10-16T06:56:34;14.80;99.90
9193;DHT22;4631;49.296;10.560;2022-10-16T06:59:00;14.80;99.90
9193;DHT22;4631;49.296;10.560;2022-10-16T07:01:27;14.90;99.90
9193;DHT22;4631;49.296;10.560;2022-10-16T07:03:54;14.90;99.90
9193;DHT22;4631;49.296;10.560;2022-10-16T07:06:22;14.90;99.90
9193;DHT22;4631;49.296;10.560;2022-10-16T07:08:48;14.90;99.90
9193;DHT22;4631;49.296;10.560;2022-10-16T07:11:17;14.90;99.90
9193;DHT22;4631;49.296;10.560;2022-10-16T07:13:44;14.90;99.90
9193;DHT22;4631;49.296;10.560;2022-10-16T07:16:12;15.00;99.90
9193;DHT22;4631;49.296;10.560;2022-10-16T07:18:39;15.00;99.90
9193;DHT22;4631;49.296;10.560;2022-10-16T07:21:08;15.00;99.90
9193;DHT22;4631;49.296;10.560;2022-10-16T07:23:35;15.00;99.90
9193;DHT22;4631;49.296;10.560;2022-10-16T07:26:02;15.10;99.90
9193;DHT22;4631;49.296;10.560;2022-10-16T07:28:30;15.20;99.90
9193;DHT22;4631;49.296;10.560;2022-10-16T07:31:00;15.20;99.90
9193;DHT22;4631;49.296;10.560;2022-10-16T07:33:26;15.20;99.90
9193;DHT22;4631;49.296;10.560;2022-10-16T07:35:53;15.20;99.90
9193;DHT22;4631;49.296;10.560;2022-10-16T07:38:20;15.30;99.90
9193;DHT22;4631;49.296;10.560;2022-10-16T07:40:47;15.30;99.90
9193;DHT22;4631;49.296;10.560;2022-10-16T07:43:14;15.20;99.90
9193;DHT22;4631;49.296;10.560;2022-10-16T07:45:48;15.30;99.90
9193;DHT22;4631;49.296;10.560;2022-10-16T07:48:15;15.30;99.90
9193;DHT22;4631;49.296;10.560;2022-10-16T07:50:42;15.30;99.90
9193;DHT22;4631;49.296;10.560;2022-10-16T07:53:09;15.30;99.90
9193;DHT22;4631;49.296;10.560;2022-10-16T07:55:35;15.40;99.90
9193;DHT22;4631;49.296;10.560;2022-10-16T07:58:02;15.50;99.90
9193;DHT22;4631;49.296;10.560;2022-10-16T08:00:29;15.50;99.90
9193;DHT22;4631;49.296;10.560;2022-10-16T08:02:57;15.50;99.90
9193;DHT22;4631;49.296;10.560;2022-10-16T08:05:25;15.40;99.90
9193;DHT22;4631;49.296;10.560;2022-10-16T08:07:52;15.50;99.90
9193;DHT22;4631;49.296;10.560;2022-10-16T08:10:19;15.60;99.90
9193;DHT22;4631;49.296;10.560;2022-10-16T08:12:47;15.60;99.90
9193;DHT22;4631;49.296;10.560;2022-10-16T08:15:13;15.60;99.90
9193;DHT22;4631;49.296;10.560;2022-10-16T08:17:40;15.70;99.90
9193;DHT22;4631;49.296;10.560;2022-10-16T08:20:09;15.80;99.90
9193;DHT22;4631;49.296;10.560;2022-10-16T08:22:36;15.70;99.90
9193;DHT22;4631;49.296;10.560;2022-10-16T08:25:03;15.80;99.90
9193;DHT22;4631;49.296;10.560;2022-10-16T08:27:30;15.90;99.90
9193;DHT22;4631;49.296;10.560;2022-10-16T08:29:57;15.90;99.90
9193;DHT22;4631;49.296;10.560;2022-10-16T08:32:23;15.90;99.90
9193;DHT22;4631;49.296;10.560;2022-10-16T08:34:50;16.00;99.90
9193;DHT22;4631;49.296;10.560;2022-10-16T08:37:18;16.10;99.90
9193;DHT22;4631;49.296;10.560;2022-10-16T08:39:45;16.20;99.90
9193;DHT22;4631;49.296;10.560;2022-10-16T08:42:15;16.20;99.90
9193;DHT22;4631;49.296;10.560;2022-10-16T08:47:35;16.30;99.90
9193;DHT22;4631;49.296;10.560;2022-10-16T08:50:08;16.40;99.90
9193;DHT22;4631;49.296;10.560;2022-10-16T08:52:38;16.40;99.90
9193;DHT22;4631;49.296;10.560;2022-10-16T08:55:05;16.50;99.90
9193;DHT22;4631;49.296;10.560;2022-10-16T08:57:32;16.50;99.90
9193;DHT22;4631;49.296;10.560;2022-10-16T08:59:59;16.60;99.90
9193;DHT22;4631;49.296;10.560;2022-10-16T09:02:28;16.70;99.90
9193;DHT22;4631;49.296;10.560;2022-10-16T09:05:02;16.70;99.90
9193;DHT22;4631;49.296;10.560;2022-10-16T09:07:40;16.70;99.90
9193;DHT22;4631;49.296;10.560;2022-10-16T09:10:11;16.70;99.90
9193;DHT22;4631;49.296;10.560;2022-10-16T09:12:41;16.70;99.90
9193;DHT22;4631;49.296;10.560;2022-10-16T09:15:13;16.70;99.90
9193;DHT22;4631;49.296;10.560;2022-10-16T09:17:42;16.70;99.90
9193;DHT22;4631;49.296;10.560;2022-10-16T09:20:20;16.60;99.90
9193;DHT22;4631;49.296;10.560;2022-10-16T09:22:51;16.60;99.90
9193;DHT22;4631;49.296;10.560;2022-10-16T09:25:20;16.60;99.90
9193;DHT22;4631;49.296;10.560;2022-10-16T09:27:48;16.60;99.90
9193;DHT22;4631;49.296;10.560;2022-10-16T09:30:15;16.70;99.90
9193;DHT22;4631;49.296;10.560;2022-10-16T09:32:43;16.70;99.90
9193;DHT22;4631;49.296;10.560;2022-10-16T09:35:11;16.70;99.90
9193;DHT22;4631;49.296;10.560;2022-10-16T09:37:39;16.80;99.90
9193;DHT22;4631;49.296;10.560;2022-10-16T09:40:11;16.90;99.90
9193;DHT22;4631;49.296;10.560;2022-10-16T09:42:38;17.00;99.90
9193;DHT22;4631;49.296;10.560;2022-10-16T09:45:05;17.10;99.90
9193;DHT22;4631;49.296;10.560;2022-10-16T09:47:35;17.20;99.90
9193;DHT22;4631;49.296;10.560;2022-10-16T09:50:19;17.20;99.90
9193;DHT22;4631;49.296;10.560;2022-10-16T09:52:46;17.30;99.90
9193;DHT22;4631;49.296;10.560;2022-10-16T09:55:15;17.30;99.90
9193;DHT22;4631;49.296;10.560;2022-10-16T09:57:48;17.40;99.90
9193;DHT22;4631;49.296;10.560;2022-10-16T10:00:15;17.50;99.90
9193;DHT22;4631;49.296;10.560;2022-10-16T10:02:42;17.50;99.90
9193;DHT22;4631;49.296;10.560;2022-10-16T10:05:17;17.60;99.90
9193;DHT22;4631;49.296;10.560;2022-10-16T10:07:44;17.60;99.90
9193;DHT22;4631;49.296;10.560;2022-10-16T10:10:19;17.70;99.90
9193;DHT22;4631;49.296;10.560;2022-10-16T10:12:46;17.80;99.90
9193;DHT22;4631;49.296;10.560;2022-10-16T10:15:14;17.90;99.90
9193;DHT22;4631;49.296;10.560;2022-10-16T10:17:46;17.90;99.90
9193;DHT22;4631;49.296;10.560;2022-10-16T10:20:15;18.00;99.90
9193;DHT22;4631;49.296;10.560;2022-10-16T10:22:47;18.10;99.90
9193;DHT22;4631;49.296;10.560;2022-10-16T10:25:37;18.20;99.90
9193;DHT22;4631;49.296;10.560;2022-10-16T10:28:18;18.30;99.90
9193;DHT22;4631;49.296;10.560;2022-10-16T10:30:49;18.40;99.90
9193;DHT22;4631;49.296;10.560;2022-10-16T10:33:21;18.40;99.90
9193;DHT22;4631;49.296;10.560;2022-10-16T10:35:52;18.40;99.90
9193;DHT22;4631;49.296;10.560;2022-10-16T10:38:24;18.40;99.90
9193;DHT22;4631;49.296;10.560;2022-10-16T10:40:57;18.50;99.90
9193;DHT22;4631;49.296;10.560;2022-10-16T10:43:29;18.50;99.90
9193;DHT22;4631;49.296;10.560;2022-10-16T10:46:02;18.50;99.90
9193;DHT22;4631;49.296;10.560;2022-10-16T10:51:13;18.60;99.90
9193;DHT22;4631;49.296;10.560;2022-10-16T10:53:47;18.60;99.90
9193;DHT22;4631;49.296;10.560;2022-10-16T10:56:21;18.80;99.90
9193;DHT22;4631;49.296;10.560;2022-10-16T10:58:52;18.90;99.90
9193;DHT22;4631;49.296;10.560;2022-10-16T11:01:25;19.10;99.90
9193;DHT22;4631;49.296;10.560;2022-10-16T11:04:03;19.20;99.90
9193;DHT22;4631;49.296;10.560;2022-10-16T11:06:35;19.30;99.90
9193;DHT22;4631;49.296;10.560;2022-10-16T11:09:04;19.40;99.90
9193;DHT22;4631;49.296;10.560;2022-10-16T11:11:38;19.50;99.90
9193;DHT22;4631;49.296;10.560;2022-10-16T11:14:09;19.60;99.90
9193;DHT22;4631;49.296;10.560;2022-10-16T11:16:39;19.70;99.90
9193;DHT22;4631;49.296;10.560;2022-10-16T11:19:10;19.90;99.90
9193;DHT22;4631;49.296;10.560;2022-10-16T11:21:39;20.00;99.90
9193;DHT22;4631;49.296;10.560;2022-10-16T11:24:11;20.10;99.90
9193;DHT22;4631;49.296;10.560;2022-10-16T11:26:43;20.00;99.90
9193;DHT22;4631;49.296;10.560;2022-10-16T11:29:13;20.10;99.90
9193;DHT22;4631;49.296;10.560;2022-10-16T11:31:41;20.10;99.90
9193;DHT22;4631;49.296;10.560;2022-10-16T11:34:11;20.40;99.90
9193;DHT22;4631;49.296;10.560;2022-10-16T11:36:43;20.60;99.90
9193;DHT22;4631;49.296;10.560;2022-10-16T11:39:22;20.90;99.90
9193;DHT22;4631;49.296;10.560;2022-10-16T11:41:52;21.10;99.90
9193;DHT22;4631;49.296;10.560;2022-10-16T11:44:25;21.40;99.90
9193;DHT22;4631;49.296;10.560;2022-10-16T11:46:58;21.60;99.90
9193;DHT22;4631;49.296;10.560;2022-10-16T11:49:26;21.70;99.90
9193;DHT22;4631;49.296;10.560;2022-10-16T11:51:55;21.90;99.90
9193;DHT22;4631;49.296;10.560;2022-10-16T11:54:27;22.10;99.90
9193;DHT22;4631;49.296;10.560;2022-10-16T11:56:57;22.30;99.90
9193;DHT22;4631;49.296;10.560;2022-10-16T11:59:27;22.50;99.90
9193;DHT22;4631;49.296;10.560;2022-10-16T12:01:57;22.60;99.90
9193;DHT22;4631;49.296;10.560;2022-10-16T12:04:27;22.50;99.90
9193;DHT22;4631;49.296;10.560;2022-10-16T12:06:59;22.40;99.90
9193;DHT22;4631;49.296;10.560;2022-10-16T12:09:30;22.50;99.90
9193;DHT22;4631;49.296;10.560;2022-10-16T12:11:58;22.50;99.90
9193;DHT22;4631;49.296;10.560;2022-10-16T12:14:35;22.40;99.90
9193;DHT22;4631;49.296;10.560;2022-10-16T12:17:03;22.30;99.90
9193;DHT22;4631;49.296;10.560;2022-10-16T12:19:32;22.20;99.90
9193;DHT22;4631;49.296;10.560;2022-10-16T12:21:59;22.00;99.90
9193;DHT22;4631;49.296;10.560;2022-10-16T12:24:33;22.10;99.90
9193;DHT22;4631;49.296;10.560;2022-10-16T12:27:02;22.00;99.90
9193;DHT22;4631;49.296;10.560;2022-10-16T12:29:32;22.10;99.90
9193;DHT22;4631;49.296;10.560;2022-10-16T12:31:59;22.10;99.90
9193;DHT22;4631;49.296;10.560;2022-10-16T12:34:27;22.30;99.90
9193;DHT22;4631;49.296;10.560;2022-10-16T12:36:54;22.50;99.90
9193;DHT22;4631;49.296;10.560;2022-10-16T12:39:21;22.70;99.90
9193;DHT22;4631;49.296;10.560;2022-10-16T12:41:59;23.10;99.90
9193;DHT22;4631;49.296;10.560;2022-10-16T12:44:27;23.40;99.90
9193;DHT22;4631;49.296;10.560;2022-10-16T12:46:57;23.60;99.90
9193;DHT22;4631;49.296;10.560;2022-10-16T12:49:30;23.80;99.90
9193;DHT22;4631;49.296;10.560;2022-10-16T12:51:57;23.90;99.90
9193;DHT22;4631;49.296;10.560;2022-10-16T12:54:25;24.00;99.90
9193;DHT22;4631;49.296;10.560;2022-10-16T12:56:57;24.10;99.90
9193;DHT22;4631;49.296;10.560;2022-10-16T12:59:35;24.30;99.90
9193;DHT22;4631;49.296;10.560;2022-10-16T13:04:52;24.70;99.90
9193;DHT22;4631;49.296;10.560;2022-10-16T13:10:06;24.90;99.90
9193;DHT22;4631;49.296;10.560;2022-10-16T13:12:41;25.00;99.90
9193;DHT22;4631;49.296;10.560;2022-10-16T13:15:19;24.80;99.90
9193;DHT22;4631;49.296;10.560;2022-10-16T13:17:50;24.80;99.90
9193;DHT22;4631;49.296;10.560;2022-10-16T13:20:20;24.90;99.90
9193;DHT22;4631;49.296;10.560;2022-10-16T13:22:49;25.10;99.90
9193;DHT22;4631;49.296;10.560;2022-10-16T13:25:19;25.20;99.90
9193;DHT22;4631;49.296;10.560;2022-10-16T13:27:51;25.40;99.90
9193;DHT22;4631;49.296;10.560;2022-10-16T13:30:21;25.40;99.90
9193;DHT22;4631;49.296;10.560;2022-10-16T13:32:48;25.50;99.90
9193;DHT22;4631;49.296;10.560;2022-10-16T13:35:20;25.50;99.90
9193;DHT22;4631;49.296;10.560;2022-10-16T13:37:47;25.60;99.90
9193;DHT22;4631;49.296;10.560;2022-10-16T13:40:18;25.50;99.90
9193;DHT22;4631;49.296;10.560;2022-10-16T13:42:45;25.60;99.90
9193;DHT22;4631;49.296;10.560;2022-10-16T13:45:17;25.60;99.90
9193;DHT22;4631;49.296;10.560;2022-10-16T13:47:45;25.70;99.90
9193;DHT22;4631;49.296;10.560;2022-10-16T13:50:13;25.70;99.90
9193;DHT22;4631;49.296;10.560;2022-10-16T13:52:40;25.80;99.90
9193;DHT22;4631;49.296;10.560;2022-10-16T13:55:09;25.90;99.90
9193;DHT22;4631;49.296;10.560;2022-10-16T13:57:36;26.10;99.90
9193;DHT22;4631;49.296;10.560;2022-10-16T14:00:03;26.20;99.90
9193;DHT22;4631;49.296;10.560;2022-10-16T14:02:44;26.20;99.90
9193;DHT22;4631;49.296;10.560;2022-10-16T14:05:12;26.30;99.90
9193;DHT22;4631;49.296;10.560;2022-10-16T14:07:40;26.20;99.90
9193;DHT22;4631;49.296;10.560;2022-10-16T14:10:22;26.30;99.90
9193;DHT22;4631;49.296;10.560;2022-10-16T14:13:00;26.30;99.90
9193;DHT22;4631;49.296;10.560;2022-10-16T14:15:27;26.20;99.90
9193;DHT22;4631;49.296;10.560;2022-10-16T14:17:56;26.10;99.90
9193;DHT22;4631;49.296;10.560;2022-10-16T14:20:24;26.10;99.90
9193;DHT22;4631;49.296;10.560;2022-10-16T14:22:58;26.20;99.90
9193;DHT22;4631;49.296;10.560;2022-10-16T14:25:26;26.30;99.90
9193;DHT22;4631;49.296;10.560;2022-10-16T14:28:02;26.40;99.90
9193;DHT22;4631;49.296;10.560;2022-10-16T14:30:29;26.30;99.90
9193;DHT22;4631;49.296;10.560;2022-10-16T14:32:58;26.00;99.90
9193;DHT22;4631;49.296;10.560;2022-10-16T14:35:26;25.70;99.90
9193;DHT22;4631;49.296;10.560;2022-10-16T14:37:53;25.10;99.90
9193;DHT22;4631;49.296;10.560;2022-10-16T14:40:21;24.80;99.90
9193;DHT22;4631;49.296;10.560;2022-10-16T14:42:49;24.40;99.90
9193;DHT22;4631;49.296;10.560;2022-10-16T14:45:18;24.10;99.90
9193;DHT22;4631;49.296;10.560;2022-10-16T14:47:49;23.80;99.90
9193;DHT22;4631;49.296;10.560;2022-10-16T14:50:17;23.60;99.90
9193;DHT22;4631;49.296;10.560;2022-10-16T14:52:44;23.40;99.90
9193;DHT22;4631;49.296;10.560;2022-10-16T14:55:11;23.30;99.90
9193;DHT22;4631;49.296;10.560;2022-10-16T14:57:38;23.10;99.90
9193;DHT22;4631;49.296;10.560;2022-10-16T15:00:08;23.00;99.90
9193;DHT22;4631;49.296;10.560;2022-10-16T15:02:36;22.90;99.90
9193;DHT22;4631;49.296;10.560;2022-10-16T15:05:07;22.80;99.90
9193;DHT22;4631;49.296;10.560;2022-10-16T15:07:38;22.70;99.90
9193;DHT22;4631;49.296;10.560;2022-10-16T15:10:04;22.60;99.90
9193;DHT22;4631;49.296;10.560;2022-10-16T15:12:31;22.40;99.90
9193;DHT22;4631;49.296;10.560;2022-10-16T15:14:58;22.30;99.90
9193;DHT22;4631;49.296;10.560;2022-10-16T15:17:24;22.30;99.90
9193;DHT22;4631;49.296;10.560;2022-10-16T15:19:51;22.20;99.90
9193;DHT22;4631;49.296;10.560;2022-10-16T15:22:18;22.10;99.90
9193;DHT22;4631;49.296;10.560;2022-10-16T15:24:45;22.10;99.90
9193;DHT22;4631;49.296;10.560;2022-10-16T15:27:12;22.00;99.90
9193;DHT22;4631;49.296;10.560;2022-10-16T15:29:39;21.90;99.90
9193;DHT22;4631;49.296;10.560;2022-10-16T15:32:05;21.80;99.90
9193;DHT22;4631;49.296;10.560;2022-10-16T15:34:32;21.70;99.90
9193;DHT22;4631;49.296;10.560;2022-10-16T15:37:02;21.60;99.90
9193;DHT22;4631;49.296;10.560;2022-10-16T15:39:28;21.60;99.90
9193;DHT22;4631;49.296;10.560;2022-10-16T15:41:56;21.50;99.90
9193;DHT22;4631;49.296;10.560;2022-10-16T15:44:23;21.40;99.90
9193;DHT22;4631;49.296;10.560;2022-10-16T15:46:54;21.40;99.90
9193;DHT22;4631;49.296;10.560;2022-10-16T15:49:21;21.40;99.90
9193;DHT22;4631;49.296;10.560;2022-10-16T15:51:48;21.30;99.90
9193;DHT22;4631;49.296;10.560;2022-10-16T15:54:15;21.20;99.90
9193;DHT22;4631;49.296;10.560;2022-10-16T15:56:41;21.20;99.90
9193;DHT22;4631;49.296;10.560;2022-10-16T15:59:10;21.10;99.90
9193;DHT22;4631;49.296;10.560;2022-10-16T16:01:37;21.10;99.90
9193;DHT22;4631;49.296;10.560;2022-10-16T16:04:03;21.10;99.90